createdAt,value
2023-06-02T07:46:01.165Z,93745.00
2023-06-02T07:46:12.585Z,93743.00
2023-06-02T07:46:24.172Z,93749.00
2023-06-02T07:46:35.511Z,93749.00
2023-06-02T07:46:47.152Z,93749.00
2023-06-02T07:46:58.552Z,93747.00
2023-06-02T07:47:10.273Z,93747.00
2023-06-02T07:47:21.620Z,93749.00
2023-06-02T07:47:33.253Z,93749.00
2023-06-02T07:47:44.693Z,93749.00
2023-06-02T07:47:56.377Z,93747.00
2023-06-02T07:48:07.768Z,93747.00
2023-06-02T07:48:19.415Z,93749.00
2023-06-02T07:48:30.769Z,93753.00
2023-06-02T07:48:42.337Z,93749.00
2023-06-02T07:48:53.665Z,93751.00
2023-06-02T07:49:05.270Z,93753.00
2023-06-02T07:49:16.589Z,93749.00
2023-06-02T07:49:28.196Z,93749.00
2023-06-02T07:49:39.574Z,93753.00
2023-06-02T07:49:51.210Z,93753.00
2023-06-02T07:50:02.602Z,93751.00
2023-06-02T07:50:14.190Z,93751.00
2023-06-02T07:50:25.631Z,93751.00
2023-06-02T07:50:37.247Z,93753.00
2023-06-02T07:50:48.569Z,93751.00
2023-06-02T07:51:00.177Z,93753.00
2023-06-02T07:51:11.500Z,93751.00
2023-06-02T07:51:23.075Z,93749.00
2023-06-02T07:51:34.408Z,93753.00
2023-06-02T07:51:45.990Z,93751.00
2023-06-02T07:51:57.435Z,93753.00
2023-06-02T07:52:09.024Z,93753.00
2023-06-02T07:52:20.465Z,93753.00
2023-06-02T07:52:32.037Z,93755.00
2023-06-02T07:52:43.353Z,93751.00
2023-06-02T07:52:54.944Z,93751.00
2023-06-02T07:53:06.265Z,93755.00
2023-06-02T07:53:17.850Z,93753.00
2023-06-02T07:53:29.204Z,93753.00
2023-06-02T07:53:40.863Z,93753.00
2023-06-02T07:53:52.241Z,93753.00
2023-06-02T07:54:03.839Z,93755.00
2023-06-02T07:54:15.166Z,93753.00
2023-06-02T07:54:26.790Z,93753.00
2023-06-02T07:54:38.103Z,93755.00
2023-06-02T07:54:49.693Z,93755.00
2023-06-02T07:55:01.016Z,93755.00
2023-06-02T07:55:12.647Z,93755.00
2023-06-02T07:55:23.976Z,93753.00
2023-06-02T07:55:35.642Z,93757.00
2023-06-02T07:55:47.018Z,93757.00
2023-06-02T07:55:58.639Z,93755.00
2023-06-02T07:56:10.015Z,93757.00
2023-06-02T07:56:21.758Z,93755.00
2023-06-02T07:56:33.100Z,93757.00
2023-06-02T07:56:44.687Z,93755.00
2023-06-02T07:56:56.042Z,93757.00
2023-06-02T07:57:07.627Z,93755.00
2023-06-02T07:57:18.958Z,93757.00
2023-06-02T07:57:30.555Z,93755.00
2023-06-02T07:57:41.903Z,93753.00
2023-06-02T07:57:53.486Z,93757.00
2023-06-02T07:58:04.816Z,93755.00
2023-06-02T07:58:16.425Z,93759.00
2023-06-02T07:58:27.766Z,93759.00
2023-06-02T07:58:39.336Z,93757.00
2023-06-02T07:58:50.687Z,93757.00
2023-06-02T07:59:02.285Z,93759.00
2023-06-02T07:59:13.660Z,93761.00
2023-06-02T07:59:25.218Z,93757.00
2023-06-02T07:59:36.520Z,93759.00
2023-06-02T07:59:48.097Z,93759.00
2023-06-02T07:59:59.421Z,93759.00
2023-06-02T08:00:11.001Z,93761.00
2023-06-02T08:00:22.333Z,93761.00
2023-06-02T08:00:33.907Z,93761.00
2023-06-02T08:00:45.220Z,93761.00
2023-06-02T08:00:56.795Z,93763.00
2023-06-02T08:01:08.247Z,93763.00
2023-06-02T08:01:19.814Z,93765.00
2023-06-02T08:01:31.145Z,93765.00
2023-06-02T08:01:42.758Z,93763.00
2023-06-02T08:01:54.119Z,93761.00
2023-06-02T08:02:05.692Z,93763.00
2023-06-02T08:02:17.231Z,93763.00
2023-06-02T08:02:28.922Z,93765.00
2023-06-02T08:02:40.336Z,93763.00
2023-06-02T08:02:52.089Z,93769.00
2023-06-02T08:03:03.508Z,93769.00
2023-06-02T08:03:15.151Z,93767.00
2023-06-02T08:03:26.592Z,93765.00
2023-06-02T08:03:38.371Z,93767.00
2023-06-02T08:03:50.023Z,93765.00
2023-06-02T08:04:02.160Z,93769.00
2023-06-02T08:04:13.729Z,93769.00
2023-06-02T08:04:25.511Z,93769.00
2023-06-02T08:04:37.007Z,93771.00
2023-06-02T08:04:48.858Z,93769.00
2023-06-02T08:05:00.434Z,93771.00
2023-06-02T08:05:12.052Z,93767.00
2023-06-02T08:05:23.389Z,93771.00
2023-06-02T08:05:34.970Z,93771.00
2023-06-02T08:05:46.294Z,93771.00
2023-06-02T08:05:57.877Z,93769.00
2023-06-02T08:06:09.184Z,93769.00
2023-06-02T08:06:20.774Z,93773.00
2023-06-02T08:06:32.094Z,93771.00
2023-06-02T08:06:44.150Z,93769.00
2023-06-02T08:06:55.805Z,93769.00
2023-06-02T08:07:07.162Z,93769.00
2023-06-02T08:07:18.762Z,93769.00
2023-06-02T08:07:30.117Z,93767.00
2023-06-02T08:07:41.708Z,93769.00
2023-06-02T08:07:53.055Z,93767.00
2023-06-02T08:08:05.286Z,93767.00
2023-06-02T08:08:14.846Z,93769.00
2023-06-02T08:08:26.427Z,93767.00
2023-06-02T08:08:37.780Z,93767.00
2023-06-02T08:08:49.370Z,93769.00
2023-06-02T08:09:00.715Z,93767.00
2023-06-02T08:09:12.304Z,93769.00
2023-06-02T08:09:23.666Z,93769.00
2023-06-02T08:09:35.244Z,93767.00
2023-06-02T08:09:46.570Z,93767.00
2023-06-02T08:09:58.152Z,93767.00
2023-06-02T08:10:09.496Z,93765.00
2023-06-02T08:10:21.076Z,93767.00
2023-06-02T08:10:32.464Z,93765.00
2023-06-02T08:10:44.073Z,93767.00
2023-06-02T08:10:55.401Z,93765.00
2023-06-02T08:11:06.997Z,93767.00
2023-06-02T08:11:18.482Z,93767.00
2023-06-02T08:11:30.472Z,93765.00
2023-06-02T08:11:42.690Z,93763.00
2023-06-02T08:11:54.527Z,93767.00
2023-06-02T08:12:06.035Z,93765.00
2023-06-02T08:12:18.087Z,93763.00
2023-06-02T08:12:29.412Z,93765.00
2023-06-02T08:12:40.991Z,93765.00
2023-06-02T08:12:52.349Z,93767.00
2023-06-02T08:13:03.918Z,93765.00
2023-06-02T08:13:15.241Z,93765.00
2023-06-02T08:13:27.037Z,93765.00
2023-06-02T08:13:38.380Z,93763.00
2023-06-02T08:13:49.962Z,93765.00
2023-06-02T08:14:01.306Z,93767.00
2023-06-02T08:14:12.869Z,93767.00
2023-06-02T08:14:24.192Z,93767.00
2023-06-02T08:14:35.795Z,93767.00
2023-06-02T08:14:47.096Z,93767.00
2023-06-02T08:14:58.704Z,93765.00
2023-06-02T08:15:10.034Z,93767.00
2023-06-02T08:15:21.767Z,93765.00
2023-06-02T08:15:33.109Z,93767.00
2023-06-02T08:15:45.933Z,93763.00
2023-06-02T08:16:08.132Z,93767.00
2023-06-02T08:16:30.379Z,93769.00
2023-06-02T08:16:56.976Z,93771.00
2023-06-02T08:17:01.046Z,93769.00
2023-06-02T08:17:12.370Z,93767.00
2023-06-02T08:17:23.954Z,93771.00
2023-06-02T08:17:35.371Z,93771.00
2023-06-02T08:17:47.212Z,93769.00
2023-06-02T08:17:58.695Z,93771.00
2023-06-02T08:18:10.351Z,93767.00
2023-06-02T08:18:22.407Z,93771.00
2023-06-02T08:18:34.163Z,93771.00
2023-06-02T08:18:46.033Z,93773.00
2023-06-02T08:18:57.491Z,93773.00
2023-06-02T08:19:09.649Z,93771.00
2023-06-02T08:19:21.219Z,93771.00
2023-06-02T08:19:32.899Z,93773.00
2023-06-02T08:19:44.264Z,93771.00
2023-06-02T08:19:55.840Z,93775.00
2023-06-02T08:20:07.189Z,93775.00
2023-06-02T08:20:18.760Z,93776.00
2023-06-02T08:20:30.074Z,93776.00
2023-06-02T08:20:41.650Z,93776.00
2023-06-02T08:20:53.062Z,93778.00
2023-06-02T08:21:04.996Z,93775.00
2023-06-02T08:21:16.473Z,93776.00
2023-06-02T08:21:28.708Z,93776.00
2023-06-02T08:21:40.088Z,93776.00
2023-06-02T08:21:51.745Z,93778.00
2023-06-02T08:22:03.157Z,93778.00
2023-06-02T08:22:14.840Z,93776.00
2023-06-02T08:22:26.247Z,93778.00
2023-06-02T08:22:37.936Z,93778.00
2023-06-02T08:22:49.288Z,93778.00
2023-06-02T08:23:00.889Z,93778.00
2023-06-02T08:23:12.238Z,93776.00
2023-06-02T08:23:23.825Z,93776.00
2023-06-02T08:23:35.182Z,93776.00
2023-06-02T08:23:46.788Z,93776.00
2023-06-02T08:23:58.220Z,93776.00
2023-06-02T08:24:09.803Z,93775.00
2023-06-02T08:24:21.133Z,93778.00
2023-06-02T08:24:32.715Z,93776.00
2023-06-02T08:24:44.072Z,93778.00
2023-06-02T08:24:55.667Z,93778.00
2023-06-02T08:25:07.066Z,93776.00
2023-06-02T08:25:18.657Z,93776.00
2023-06-02T08:25:29.966Z,93776.00
2023-06-02T08:25:41.583Z,93776.00
2023-06-02T08:25:52.915Z,93776.00
2023-06-02T08:26:04.505Z,93778.00
2023-06-02T08:26:15.829Z,93778.00
2023-06-02T08:26:27.416Z,93778.00
2023-06-02T08:26:38.785Z,93780.00
2023-06-02T08:26:50.376Z,93778.00
2023-06-02T08:27:01.696Z,93778.00
2023-06-02T08:27:13.273Z,93778.00
2023-06-02T08:27:24.593Z,93778.00
2023-06-02T08:27:36.172Z,93778.00
2023-06-02T08:27:47.496Z,93780.00
2023-06-02T08:27:59.102Z,93782.00
2023-06-02T08:28:10.462Z,93782.00
2023-06-02T08:28:22.048Z,93780.00
2023-06-02T08:28:33.419Z,93780.00
2023-06-02T08:28:44.998Z,93780.00
2023-06-02T08:28:56.328Z,93780.00
2023-06-02T08:29:07.906Z,93778.00
2023-06-02T08:29:19.238Z,93778.00
2023-06-02T08:29:31.087Z,93780.00
2023-06-02T08:29:42.844Z,93780.00
2023-06-02T08:29:54.166Z,93780.00
2023-06-02T08:30:05.758Z,93780.00
2023-06-02T08:30:17.107Z,93780.00
2023-06-02T08:30:28.697Z,93780.00
2023-06-02T08:30:40.033Z,93778.00
2023-06-02T08:30:51.717Z,93780.00
2023-06-02T08:31:03.104Z,93780.00
2023-06-02T08:31:14.820Z,93782.00
2023-06-02T08:31:26.176Z,93778.00
2023-06-02T08:31:38.080Z,93780.00
2023-06-02T08:31:49.946Z,93780.00
2023-06-02T08:32:01.328Z,93780.00
2023-06-02T08:32:12.970Z,93778.00
2023-06-02T08:32:27.020Z,93778.00
2023-06-02T08:32:34.404Z,93778.00
2023-06-02T08:32:45.740Z,93780.00
2023-06-02T08:32:57.361Z,93782.00
2023-06-02T08:33:08.762Z,93782.00
2023-06-02T08:33:20.481Z,93784.00
2023-06-02T08:33:31.798Z,93780.00
2023-06-02T08:33:43.425Z,93782.00
2023-06-02T08:33:54.784Z,93782.00
2023-06-02T08:34:06.418Z,93782.00
2023-06-02T08:34:17.740Z,93782.00
2023-06-02T08:34:29.316Z,93784.00
2023-06-02T08:34:40.635Z,93780.00
2023-06-02T08:34:52.222Z,93782.00
2023-06-02T08:35:03.585Z,93780.00
2023-06-02T08:35:15.195Z,93782.00
2023-06-02T08:35:26.654Z,93782.00
2023-06-02T08:35:38.369Z,93782.00
2023-06-02T08:35:49.801Z,93782.00
2023-06-02T08:36:01.511Z,93782.00
2023-06-02T08:36:12.955Z,93780.00
2023-06-02T08:36:36.014Z,93780.00
2023-06-02T08:36:47.777Z,93780.00
2023-06-02T08:36:59.270Z,93784.00
2023-06-02T08:37:10.870Z,93786.00
2023-06-02T08:37:22.194Z,93784.00
2023-06-02T08:37:33.801Z,93782.00
2023-06-02T08:37:45.132Z,93782.00
2023-06-02T08:37:56.736Z,93782.00
2023-06-02T08:38:08.069Z,93782.00
2023-06-02T08:38:19.653Z,93782.00
2023-06-02T08:38:31.111Z,93782.00
2023-06-02T08:38:42.714Z,93780.00
2023-06-02T08:38:54.089Z,93784.00
2023-06-02T08:39:05.640Z,93782.00
2023-06-02T08:39:16.993Z,93782.00
2023-06-02T08:39:28.571Z,93784.00
2023-06-02T08:39:39.902Z,93784.00
2023-06-02T08:39:51.497Z,93782.00
2023-06-02T08:40:02.813Z,93782.00
2023-06-02T08:40:14.457Z,93780.00
2023-06-02T08:40:25.807Z,93784.00
2023-06-02T08:40:37.396Z,93782.00
2023-06-02T08:40:48.733Z,93780.00
2023-06-02T08:41:00.338Z,93782.00
2023-06-02T08:41:11.652Z,93780.00
2023-06-02T08:41:23.219Z,93782.00
2023-06-02T08:41:34.554Z,93782.00
2023-06-02T08:41:46.161Z,93782.00
2023-06-02T08:41:57.475Z,93778.00
2023-06-02T08:42:09.072Z,93780.00
2023-06-02T08:42:20.404Z,93778.00
2023-06-02T08:42:32.019Z,93778.00
2023-06-02T08:42:43.370Z,93780.00
2023-06-02T08:42:54.924Z,93780.00
2023-06-02T08:43:06.273Z,93780.00
2023-06-02T08:43:17.871Z,93778.00
2023-06-02T08:43:29.206Z,93778.00
2023-06-02T08:43:40.806Z,93778.00
2023-06-02T08:43:52.188Z,93778.00
2023-06-02T08:44:03.767Z,93778.00
2023-06-02T08:44:15.103Z,93780.00
2023-06-02T08:44:26.703Z,93778.00
2023-06-02T08:44:38.049Z,93778.00
2023-06-02T08:44:49.629Z,93776.00
2023-06-02T08:45:00.971Z,93776.00
2023-06-02T08:45:12.566Z,93778.00
2023-06-02T08:45:23.916Z,93778.00
2023-06-02T08:45:35.538Z,93776.00
2023-06-02T08:45:46.850Z,93780.00
2023-06-02T08:45:58.497Z,93776.00
2023-06-02T08:46:09.870Z,93780.00
2023-06-02T08:46:21.476Z,93778.00
2023-06-02T08:46:32.917Z,93778.00
2023-06-02T08:46:44.772Z,93778.00
2023-06-02T08:46:56.253Z,93775.00
2023-06-02T08:47:07.947Z,93776.00
2023-06-02T08:47:19.298Z,93778.00
2023-06-02T08:47:30.949Z,93775.00
2023-06-02T08:47:42.308Z,93778.00
2023-06-02T08:47:53.984Z,93778.00
2023-06-02T08:48:05.331Z,93780.00
2023-06-02T08:48:16.903Z,93775.00
2023-06-02T08:48:28.220Z,93778.00
2023-06-02T08:48:39.810Z,93780.00
2023-06-02T08:48:51.149Z,93778.00
2023-06-02T08:49:02.747Z,93778.00
2023-06-02T08:49:14.066Z,93778.00
2023-06-02T08:49:25.672Z,93776.00
2023-06-02T08:49:37.005Z,93778.00
2023-06-02T08:49:48.609Z,93776.00
2023-06-02T08:49:59.946Z,93776.00
2023-06-02T08:50:11.554Z,93780.00
2023-06-02T08:50:22.921Z,93780.00
2023-06-02T08:50:34.550Z,93776.00
2023-06-02T08:50:45.982Z,93778.00
2023-06-02T08:50:57.635Z,93778.00
2023-06-02T08:51:08.952Z,93775.00
2023-06-02T08:51:20.526Z,93776.00
2023-06-02T08:51:31.864Z,93775.00
2023-06-02T08:51:43.443Z,93775.00
2023-06-02T08:51:54.793Z,93776.00
2023-06-02T08:52:06.393Z,93776.00
2023-06-02T08:52:17.729Z,93775.00
2023-06-02T08:52:29.292Z,93776.00
2023-06-02T08:52:40.626Z,93776.00
2023-06-02T08:52:52.211Z,93775.00
2023-06-02T08:53:03.536Z,93780.00
2023-06-02T08:53:15.144Z,93775.00
2023-06-02T08:53:26.469Z,93780.00
2023-06-02T08:53:38.072Z,93778.00
2023-06-02T08:53:49.390Z,93778.00
2023-06-02T08:54:01.014Z,93780.00
2023-06-02T08:54:12.327Z,93778.00
2023-06-02T08:54:23.934Z,93780.00
2023-06-02T08:54:35.266Z,93780.00
2023-06-02T08:54:46.844Z,93778.00
2023-06-02T08:54:58.182Z,93778.00
2023-06-02T08:55:09.756Z,93778.00
2023-06-02T08:55:21.071Z,93778.00
2023-06-02T08:55:32.668Z,93778.00
2023-06-02T08:55:44.008Z,93780.00
2023-06-02T08:55:55.587Z,93780.00
2023-06-02T08:56:07.167Z,93778.00
2023-06-02T08:56:19.018Z,93780.00
2023-06-02T08:56:30.426Z,93780.00
2023-06-02T08:56:42.068Z,93780.00
2023-06-02T08:56:53.466Z,93780.00
2023-06-02T08:57:05.076Z,93776.00
2023-06-02T08:57:16.423Z,93780.00
2023-06-02T08:57:28.009Z,93780.00
2023-06-02T08:57:39.324Z,93780.00
2023-06-02T08:57:50.937Z,93780.00
2023-06-02T08:58:02.288Z,93780.00
2023-06-02T08:58:13.937Z,93780.00
2023-06-02T08:58:25.260Z,93780.00
2023-06-02T08:58:36.856Z,93784.00
2023-06-02T08:58:48.280Z,93780.00
2023-06-02T08:58:59.872Z,93780.00
2023-06-02T08:59:11.212Z,93782.00
2023-06-02T08:59:22.795Z,93782.00
2023-06-02T08:59:34.110Z,93782.00
2023-06-02T08:59:45.686Z,93782.00
2023-06-02T08:59:57.010Z,93780.00
2023-06-02T09:00:08.650Z,93782.00
2023-06-02T09:00:19.956Z,93782.00
2023-06-02T09:00:31.520Z,93780.00
2023-06-02T09:00:42.871Z,93784.00
2023-06-02T09:00:54.456Z,93782.00
2023-06-02T09:01:05.795Z,93780.00
2023-06-02T09:01:17.462Z,93784.00
2023-06-02T09:01:28.890Z,93784.00
2023-06-02T09:01:40.492Z,93784.00
2023-06-02T09:01:51.887Z,93784.00
2023-06-02T09:02:03.564Z,93782.00
2023-06-02T09:02:14.955Z,93784.00
2023-06-02T09:02:26.594Z,93784.00
2023-06-02T09:02:37.960Z,93784.00
2023-06-02T09:02:49.616Z,93786.00
2023-06-02T09:03:00.963Z,93784.00
2023-06-02T09:03:20.386Z,93782.00
2023-06-02T09:03:44.717Z,93784.00
2023-06-02T09:03:48.701Z,93782.00
2023-06-02T09:04:00.698Z,93786.00
2023-06-02T09:04:12.092Z,93784.00
2023-06-02T09:04:23.714Z,93784.00
2023-06-02T09:04:35.142Z,93782.00
2023-06-02T09:04:46.810Z,93780.00
2023-06-02T09:04:58.210Z,93782.00
2023-06-02T09:05:09.834Z,93780.00
2023-06-02T09:05:21.154Z,93782.00
2023-06-02T09:05:32.740Z,93780.00
2023-06-02T09:05:44.065Z,93782.00
2023-06-02T09:05:55.663Z,93780.00
2023-06-02T09:06:07.201Z,93782.00
2023-06-02T09:06:18.923Z,93778.00
2023-06-02T09:06:30.232Z,93778.00
2023-06-02T09:06:41.812Z,93778.00
2023-06-02T09:06:53.142Z,93778.00
2023-06-02T09:07:04.743Z,93780.00
2023-06-02T09:07:16.074Z,93780.00
2023-06-02T09:07:27.645Z,93780.00
2023-06-02T09:07:38.978Z,93778.00
2023-06-02T09:07:50.578Z,93778.00
2023-06-02T09:08:01.900Z,93778.00
2023-06-02T09:08:13.525Z,93780.00
2023-06-02T09:08:24.861Z,93776.00
2023-06-02T09:08:36.443Z,93780.00
2023-06-02T09:08:47.781Z,93780.00
2023-06-02T09:08:59.388Z,93780.00
2023-06-02T09:09:10.702Z,93780.00
2023-06-02T09:09:22.279Z,93780.00
2023-06-02T09:09:33.599Z,93778.00
2023-06-02T09:09:45.186Z,93780.00
2023-06-02T09:09:58.437Z,93780.00
2023-06-02T09:10:08.054Z,93782.00
2023-06-02T09:10:19.654Z,93786.00
2023-06-02T09:10:30.997Z,93778.00
2023-06-02T09:10:42.590Z,93784.00
2023-06-02T09:10:53.919Z,93782.00
2023-06-02T09:11:05.509Z,93784.00
2023-06-02T09:11:16.832Z,93782.00
2023-06-02T09:11:28.420Z,93782.00
2023-06-02T09:11:39.738Z,93784.00
2023-06-02T09:11:51.338Z,93782.00
2023-06-02T09:12:02.697Z,93782.00
2023-06-02T09:12:14.302Z,93784.00
2023-06-02T09:12:25.806Z,93780.00
2023-06-02T09:12:37.508Z,93784.00
2023-06-02T09:12:48.866Z,93782.00
2023-06-02T09:13:00.415Z,93782.00
2023-06-02T09:13:11.780Z,93782.00
2023-06-02T09:13:23.360Z,93782.00
2023-06-02T09:13:41.588Z,93782.00
2023-06-02T09:13:46.717Z,93782.00
2023-06-02T09:13:58.058Z,93780.00
2023-06-02T09:14:09.636Z,93782.00
2023-06-02T09:14:20.993Z,93782.00
2023-06-02T09:14:32.559Z,93782.00
2023-06-02T09:14:43.895Z,93780.00
2023-06-02T09:14:55.466Z,93780.00
2023-06-02T09:15:08.169Z,93780.00
2023-06-02T09:15:17.576Z,93782.00
2023-06-02T09:15:29.187Z,93784.00
2023-06-02T09:15:40.528Z,93780.00
2023-06-02T09:15:52.180Z,93780.00
2023-06-02T09:16:04.302Z,93780.00
2023-06-02T09:16:13.857Z,93782.00
2023-06-02T09:16:25.548Z,93782.00
2023-06-02T09:16:36.967Z,93782.00
2023-06-02T09:16:48.597Z,93782.00
2023-06-02T09:16:59.963Z,93780.00
2023-06-02T09:17:11.527Z,93780.00
2023-06-02T09:17:22.896Z,93780.00
2023-06-02T09:17:34.533Z,93780.00
2023-06-02T09:17:45.880Z,93782.00
2023-06-02T09:17:57.482Z,93778.00
2023-06-02T09:18:08.845Z,93782.00
2023-06-02T09:18:21.234Z,93780.00
2023-06-02T09:18:31.503Z,93782.00
2023-06-02T09:18:43.111Z,93780.00
2023-06-02T09:18:54.462Z,93780.00
2023-06-02T09:19:06.058Z,93782.00
2023-06-02T09:19:17.389Z,93780.00
2023-06-02T09:19:28.969Z,93780.00
2023-06-02T09:19:40.290Z,93782.00
2023-06-02T09:19:51.889Z,93782.00
2023-06-02T09:20:03.206Z,93782.00
2023-06-02T09:20:14.790Z,93782.00
2023-06-02T09:20:26.139Z,93782.00
2023-06-02T09:20:37.704Z,93780.00
2023-06-02T09:20:49.025Z,93780.00
2023-06-02T09:21:00.746Z,93780.00
2023-06-02T09:21:12.091Z,93780.00
2023-06-02T09:21:23.727Z,93782.00
2023-06-02T09:21:35.108Z,93782.00
2023-06-02T09:21:46.771Z,93782.00
2023-06-02T09:21:58.106Z,93782.00
2023-06-02T09:22:09.806Z,93778.00
2023-06-02T09:22:21.187Z,93780.00
2023-06-02T09:22:35.598Z,93780.00
2023-06-02T09:22:49.173Z,93784.00
2023-06-02T09:22:56.860Z,93782.00
2023-06-02T09:23:08.234Z,93782.00
2023-06-02T09:23:19.891Z,93780.00
2023-06-02T09:23:33.470Z,93782.00
2023-06-02T09:23:42.712Z,93780.00
2023-06-02T09:24:11.439Z,93782.00
2023-06-02T09:24:16.344Z,93782.00
2023-06-02T09:24:27.668Z,93782.00
2023-06-02T09:24:39.241Z,93780.00
2023-06-02T09:24:50.561Z,93780.00
2023-06-02T09:25:02.155Z,93780.00
2023-06-02T09:25:13.475Z,93780.00
2023-06-02T09:25:25.063Z,93778.00
2023-06-02T09:25:36.425Z,93780.00
2023-06-02T09:25:48.064Z,93782.00
2023-06-02T09:26:05.939Z,93778.00
2023-06-02T09:26:16.902Z,93778.00
2023-06-02T09:26:23.566Z,93778.00
2023-06-02T09:26:35.062Z,93778.00
2023-06-02T09:26:46.636Z,93778.00
2023-06-02T09:26:57.960Z,93776.00
2023-06-02T09:27:09.537Z,93778.00
2023-06-02T09:27:20.858Z,93778.00
2023-06-02T09:27:32.450Z,93778.00
2023-06-02T09:27:43.935Z,93775.00
2023-06-02T09:27:55.509Z,93776.00
2023-06-02T09:28:06.841Z,93780.00
2023-06-02T09:28:18.443Z,93778.00
2023-06-02T09:28:32.305Z,93778.00
2023-06-02T09:28:41.661Z,93778.00
2023-06-02T09:28:53.254Z,93778.00
2023-06-02T09:29:04.656Z,93776.00
2023-06-02T09:29:16.319Z,93776.00
2023-06-02T09:29:27.654Z,93778.00
2023-06-02T09:29:39.249Z,93776.00
2023-06-02T09:29:51.815Z,93775.00
2023-06-02T09:30:02.609Z,93775.00
2023-06-02T09:30:14.235Z,93776.00
2023-06-02T09:30:25.560Z,93776.00
2023-06-02T09:30:37.172Z,93773.00
2023-06-02T09:30:48.556Z,93775.00
2023-06-02T09:31:00.167Z,93773.00
2023-06-02T09:31:11.628Z,93775.00
2023-06-02T09:31:23.321Z,93775.00
2023-06-02T09:31:34.733Z,93775.00
2023-06-02T09:31:46.394Z,93775.00
2023-06-02T09:31:57.831Z,93773.00
2023-06-02T09:32:09.496Z,93775.00
2023-06-02T09:32:20.927Z,93773.00
2023-06-02T09:32:32.710Z,93771.00
2023-06-02T09:32:44.205Z,93775.00
2023-06-02T09:32:55.878Z,93773.00
2023-06-02T09:33:07.280Z,93773.00
2023-06-02T09:33:19.058Z,93776.00
2023-06-02T09:33:30.444Z,93773.00
2023-06-02T09:33:42.009Z,93775.00
2023-06-02T09:33:53.359Z,93773.00
2023-06-02T09:34:05.019Z,93769.00
2023-06-02T09:34:16.366Z,93775.00
2023-06-02T09:34:27.962Z,93773.00
2023-06-02T09:34:39.279Z,93773.00
2023-06-02T09:34:50.856Z,93773.00
2023-06-02T09:35:02.184Z,93773.00
2023-06-02T09:35:13.779Z,93773.00
2023-06-02T09:35:25.100Z,93773.00
2023-06-02T09:35:36.687Z,93773.00
2023-06-02T09:35:48.014Z,93771.00
2023-06-02T09:36:01.216Z,93773.00
2023-06-02T09:36:10.634Z,93776.00
2023-06-02T09:36:22.247Z,93775.00
2023-06-02T09:36:33.575Z,93771.00
2023-06-02T09:36:45.200Z,93775.00
2023-06-02T09:36:56.505Z,93775.00
2023-06-02T09:37:08.090Z,93771.00
2023-06-02T09:37:19.462Z,93775.00
2023-06-02T09:37:31.041Z,93775.00
2023-06-02T09:37:42.366Z,93775.00
2023-06-02T09:37:53.939Z,93775.00
2023-06-02T09:38:05.293Z,93775.00
2023-06-02T09:38:16.889Z,93775.00
2023-06-02T09:38:28.212Z,93775.00
2023-06-02T09:38:39.809Z,93775.00
2023-06-02T09:38:51.137Z,93775.00
2023-06-02T09:39:02.780Z,93775.00
2023-06-02T09:39:14.147Z,93775.00
2023-06-02T09:39:25.731Z,93775.00
2023-06-02T09:39:37.064Z,93776.00
2023-06-02T09:39:48.640Z,93775.00
2023-06-02T09:39:59.965Z,93776.00
2023-06-02T09:40:11.543Z,93775.00
2023-06-02T09:40:22.884Z,93775.00
2023-06-02T09:40:34.491Z,93775.00
2023-06-02T09:40:45.990Z,93775.00
2023-06-02T09:40:57.558Z,93775.00
2023-06-02T09:41:08.914Z,93775.00
2023-06-02T09:41:21.489Z,93776.00
2023-06-02T09:41:30.722Z,93778.00
2023-06-02T09:41:42.303Z,93776.00
2023-06-02T09:41:53.644Z,93775.00
2023-06-02T09:42:05.239Z,93775.00
2023-06-02T09:42:16.580Z,93776.00
2023-06-02T09:42:28.162Z,93776.00
2023-06-02T09:42:39.495Z,93778.00
2023-06-02T09:42:51.096Z,93775.00
2023-06-02T09:43:02.406Z,93775.00
2023-06-02T09:43:13.980Z,93776.00
2023-06-02T09:43:25.320Z,93780.00
2023-06-02T09:43:36.933Z,93778.00
2023-06-02T09:43:48.283Z,93778.00
2023-06-02T09:43:59.873Z,93778.00
2023-06-02T09:44:11.190Z,93778.00
2023-06-02T09:44:22.829Z,93778.00
2023-06-02T09:44:34.162Z,93776.00
2023-06-02T09:44:45.773Z,93778.00
2023-06-02T09:44:57.106Z,93780.00
2023-06-02T09:45:08.687Z,93780.00
2023-06-02T09:45:20.027Z,93782.00
2023-06-02T09:45:31.679Z,93780.00
2023-06-02T09:45:43.133Z,93778.00
2023-06-02T09:45:54.922Z,93780.00
2023-06-02T09:46:06.525Z,93778.00
2023-06-02T09:46:18.387Z,93778.00
2023-06-02T09:46:29.849Z,93780.00
2023-06-02T09:46:41.806Z,93778.00
2023-06-02T09:46:53.466Z,93778.00
2023-06-02T09:47:05.227Z,93782.00
2023-06-02T09:47:16.632Z,93778.00
2023-06-02T09:47:28.445Z,93780.00
2023-06-02T09:47:40.049Z,93780.00
2023-06-02T09:47:51.850Z,93778.00
2023-06-02T09:48:03.235Z,93782.00
2023-06-02T09:48:15.011Z,93782.00
2023-06-02T09:48:26.414Z,93784.00
2023-06-02T09:48:38.129Z,93782.00
2023-06-02T09:48:49.615Z,93782.00
2023-06-02T09:49:01.293Z,93782.00
2023-06-02T09:49:12.787Z,93778.00
2023-06-02T09:49:24.412Z,93780.00
2023-06-02T09:49:35.746Z,93782.00
2023-06-02T09:49:47.331Z,93782.00
2023-06-02T09:49:58.674Z,93782.00
2023-06-02T09:50:10.331Z,93782.00
2023-06-02T09:50:21.660Z,93782.00
2023-06-02T09:50:33.250Z,93782.00
2023-06-02T09:50:44.580Z,93782.00
2023-06-02T09:50:56.166Z,93780.00
2023-06-02T09:51:07.508Z,93782.00
2023-06-02T09:51:19.095Z,93782.00
2023-06-02T09:51:30.429Z,93782.00
2023-06-02T09:51:42.007Z,93782.00
2023-06-02T09:51:53.313Z,93782.00
2023-06-02T09:52:04.915Z,93782.00
2023-06-02T09:52:16.346Z,93784.00
2023-06-02T09:52:28.008Z,93784.00
2023-06-02T09:52:39.366Z,93786.00
2023-06-02T09:52:50.944Z,93786.00
2023-06-02T09:53:02.278Z,93784.00
2023-06-02T09:53:13.860Z,93786.00
2023-06-02T09:53:25.198Z,93784.00
2023-06-02T09:53:36.794Z,93786.00
2023-06-02T09:53:48.120Z,93786.00
2023-06-02T09:53:59.706Z,93786.00
2023-06-02T09:54:11.065Z,93788.00
2023-06-02T09:54:22.630Z,93784.00
2023-06-02T09:54:33.949Z,93786.00
2023-06-02T09:54:45.532Z,93784.00
2023-06-02T09:54:56.857Z,93786.00
2023-06-02T09:55:08.473Z,93786.00
2023-06-02T09:55:19.902Z,93786.00
2023-06-02T09:55:31.447Z,93786.00
2023-06-02T09:55:42.776Z,93786.00
2023-06-02T09:55:54.385Z,93788.00
2023-06-02T09:56:05.922Z,93786.00
2023-06-02T09:56:17.551Z,93784.00
2023-06-02T09:56:28.879Z,93788.00
2023-06-02T09:56:40.469Z,93786.00
2023-06-02T09:56:51.795Z,93788.00
2023-06-02T09:57:03.377Z,93784.00
2023-06-02T09:57:14.755Z,93784.00
2023-06-02T09:57:26.335Z,93788.00
2023-06-02T09:57:37.702Z,93784.00
2023-06-02T09:57:49.274Z,93786.00
2023-06-02T09:58:00.618Z,93784.00
2023-06-02T09:58:12.184Z,93786.00
2023-06-02T09:58:23.513Z,93786.00
2023-06-02T09:58:35.123Z,93784.00
2023-06-02T09:58:46.457Z,93786.00
2023-06-02T09:58:58.058Z,93786.00
2023-06-02T09:59:09.411Z,93786.00
2023-06-02T09:59:20.995Z,93788.00
2023-06-02T09:59:32.328Z,93786.00
2023-06-02T09:59:43.914Z,93786.00
2023-06-02T09:59:55.249Z,93786.00
2023-06-02T10:00:06.846Z,93792.00
2023-06-02T10:00:18.214Z,93790.00
2023-06-02T10:00:29.801Z,93792.00
2023-06-02T10:00:41.148Z,93790.00
2023-06-02T10:00:52.784Z,93792.00
2023-06-02T10:01:04.291Z,93792.00
2023-06-02T10:01:16.099Z,93792.00
2023-06-02T10:01:27.458Z,93792.00
2023-06-02T10:01:39.109Z,93794.00
2023-06-02T10:01:50.606Z,93794.00
2023-06-02T10:02:02.339Z,93792.00